Alexander, North Carolina
Current Conditions -  °F | °C
As of 3:54 PM on Tuesday 27 Jan 2015 (Local Time) from KAVL Reporting Station
Few Clouds Few Clouds  
Wind Chill: 23°   Ceiling: Unl
Heat Index: 34°   Visibility: 10mi
Dew Point: 22°   Wind: 17mph
Humidity: 61%   Direction: 360°N
Pressure: 29.89"   Gusts: 25mph
Location:  35.69°N, 82.66°W
Report Text: KAVL 272054Z AUTO 36015G22KT 10SM FEW030 01/M06 A2989 RMK AO2 SLP131 T00111056 53010
Loading
Personal Weather Stations






























Interactive Weather Map New forecast layout! Learn more

10-Day Weather Forecast

Advertisements
Track Severe Weather on mobile